Time;durP1;ratioP1;P1;durP2;ratioP2;P2;SDS_P1;SDS_P2;PMS_P1;PMS_P2;Temp;Humidity;BMP_temperature;BMP_pressure;BME280_temperature;BME280_humidity;BME280_pressure;Samples;Min_cycle;Max_cycle;Signal;HPM_P1;HPM_P2
2023/08/14 00:00:56;;;;;;;2.70;1.65;;;;;;;;;;5090173;28;20217;-63
2023/08/14 00:03:23;;;;;;;3.63;1.92;;;;;;;;;;5089742;28;20250;-62
2023/08/14 00:05:50;;;;;;;2.05;1.92;;;;;;;;;;5089647;28;20199;-62
2023/08/14 00:08:17;;;;;;;3.10;2.30;;;;;;;;;;5089852;28;20202;-62
2023/08/14 00:10:44;;;;;;;1.85;1.75;;;;;;;;;;5089685;28;20202;-62
2023/08/14 00:13:12;;;;;;;2.67;2.05;;;;;;;;;;5089727;28;20198;-62
2023/08/14 00:15:40;;;;;;;7.20;2.28;;;;;;;;;;5089339;28;20672;-62
2023/08/14 00:18:07;;;;;;;1.85;1.63;;;;;;;;;;5089428;28;20209;-62
2023/08/14 00:20:35;;;;;;;1.90;1.77;;;;;;;;;;5089054;28;20210;-62
2023/08/14 00:23:02;;;;;;;2.00;1.90;;;;;;;;;;5089640;28;20641;-62
2023/08/14 00:25:29;;;;;;;6.47;1.75;;;;;;;;;;5089213;28;20258;-63
2023/08/14 00:27:56;;;;;;;4.35;2.05;;;;;;;;;;5087971;28;20209;-62
2023/08/14 00:30:23;;;;;;;4.32;1.95;;;;;;;;;;5089311;28;20202;-63
2023/08/14 00:32:52;;;;;;;5.65;2.30;;;;;;;;;;5089560;28;20245;-62
2023/08/14 00:35:19;;;;;;;7.18;2.10;;;;;;;;;;5088472;28;20202;-63
2023/08/14 00:37:46;;;;;;;6.88;2.00;;;;;;;;;;5089546;28;20203;-62
2023/08/14 00:40:14;;;;;;;2.90;1.80;;;;;;;;;;5089345;28;20210;-62
2023/08/14 00:42:42;;;;;;;5.30;2.22;;;;;;;;;;5088934;28;20222;-62
2023/08/14 00:45:10;;;;;;;4.20;1.90;;;;;;;;;;5089009;28;20254;-63
2023/08/14 00:47:38;;;;;;;2.63;1.75;;;;;;;;;;5088962;28;20202;-62
2023/08/14 00:50:07;;;;;;;2.53;2.28;;;;;;;;;;5089120;28;20209;-62
2023/08/14 00:52:35;;;;;;;3.63;2.42;;;;;;;;;;5089056;28;20216;-63
2023/08/14 00:55:07;;;;;;;2.17;2.08;;;;;;;;;;5089002;28;20562;-63
2023/08/14 00:57:34;;;;;;;2.60;2.40;;;;;;;;;;5088692;28;20290;-63
2023/08/14 01:00:02;;;;;;;4.38;1.75;;;;;;;;;;5081098;28;20213;-63
2023/08/14 01:02:30;;;;;;;2.63;2.00;;;;;;;;;;5086405;28;20227;-63
2023/08/14 01:04:57;;;;;;;3.15;2.35;;;;;;;;;;5087680;28;20206;-62
2023/08/14 01:07:25;;;;;;;3.13;1.90;;;;;;;;;;5085332;28;20198;-62
2023/08/14 01:09:53;;;;;;;6.63;2.10;;;;;;;;;;5088907;28;20223;-63
2023/08/14 01:12:25;;;;;;;2.47;2.38;;;;;;;;;;5088700;28;20661;-62
2023/08/14 01:14:57;;;;;;;6.22;2.38;;;;;;;;;;5088760;28;20206;-63
2023/08/14 01:17:26;;;;;;;2.22;2.13;;;;;;;;;;5090600;28;20233;-63
2023/08/14 01:19:53;;;;;;;3.13;1.98;;;;;;;;;;5092645;28;20194;-63
2023/08/14 01:22:27;;;;;;;3.03;2.42;;;;;;;;;;5092687;28;20222;-62
2023/08/14 01:24:56;;;;;;;2.35;2.13;;;;;;;;;;5092873;28;20206;-63
2023/08/14 01:27:25;;;;;;;2.92;2.35;;;;;;;;;;5093127;28;20213;-63
2023/08/14 01:29:54;;;;;;;5.07;1.92;;;;;;;;;;5092760;28;20260;-62
2023/08/14 01:32:21;;;;;;;2.13;2.03;;;;;;;;;;5092355;28;20221;-62
2023/08/14 01:34:48;;;;;;;4.22;1.95;;;;;;;;;;5092969;28;20206;-63
2023/08/14 01:37:19;;;;;;;2.47;1.98;;;;;;;;;;5092971;28;20209;-63
2023/08/14 01:39:49;;;;;;;3.85;1.98;;;;;;;;;;5092926;28;20210;-62
2023/08/14 01:42:19;;;;;;;3.88;2.35;;;;;;;;;;5092327;28;20222;-62
2023/08/14 01:44:50;;;;;;;1.80;1.70;;;;;;;;;;5092661;28;20261;-62
2023/08/14 01:47:17;;;;;;;2.97;1.73;;;;;;;;;;5092238;28;20210;-62
2023/08/14 01:49:45;;;;;;;4.72;1.77;;;;;;;;;;5092378;28;20198;-62
2023/08/14 01:52:12;;;;;;;5.15;2.00;;;;;;;;;;5092112;28;20202;-62
2023/08/14 01:54:39;;;;;;;7.72;2.22;;;;;;;;;;5092207;28;20209;-62
2023/08/14 01:57:06;;;;;;;4.40;1.90;;;;;;;;;;5092542;28;20406;-62
2023/08/14 01:59:37;;;;;;;2.13;2.03;;;;;;;;;;5072198;28;20671;-63
2023/08/14 02:02:06;;;;;;;2.00;1.90;;;;;;;;;;5079049;28;20206;-62
2023/08/14 02:04:33;;;;;;;10.25;2.60;;;;;;;;;;5092187;28;20211;-62
2023/08/14 02:07:00;;;;;;;2.25;2.03;;;;;;;;;;5092112;28;20224;-63
2023/08/14 02:09:27;;;;;;;6.32;2.53;;;;;;;;;;5091777;28;20245;-63
2023/08/14 02:11:54;;;;;;;3.38;2.10;;;;;;;;;;5088349;28;20213;-62
2023/08/14 02:14:22;;;;;;;5.80;2.20;;;;;;;;;;5091939;28;20206;-63
2023/08/14 02:16:49;;;;;;;5.97;2.20;;;;;;;;;;5091907;28;20205;-63
2023/08/14 02:19:17;;;;;;;6.00;2.50;;;;;;;;;;5091481;28;20669;-62
2023/08/14 02:21:44;;;;;;;3.58;2.08;;;;;;;;;;5091782;28;20739;-63
2023/08/14 02:24:11;;;;;;;2.40;1.90;;;;;;;;;;5091415;28;20222;-64
2023/08/14 02:26:38;;;;;;;2.53;2.20;;;;;;;;;;5091547;28;20194;-63
2023/08/14 02:29:05;;;;;;;4.25;1.85;;;;;;;;;;5091391;28;20203;-63
2023/08/14 02:31:32;;;;;;;4.25;2.38;;;;;;;;;;5091029;28;20210;-63
2023/08/14 02:34:00;;;;;;;2.72;2.63;;;;;;;;;;5091313;28;20198;-63
2023/08/14 02:36:29;;;;;;;2.45;2.00;;;;;;;;;;5091506;28;20206;-63
2023/08/14 02:38:57;;;;;;;9.38;2.10;;;;;;;;;;5091286;28;20209;-63
2023/08/14 02:41:24;;;;;;;4.60;2.20;;;;;;;;;;5091304;28;20207;-63
2023/08/14 02:43:51;;;;;;;7.55;2.30;;;;;;;;;;5091614;28;20238;-64
2023/08/14 02:46:18;;;;;;;4.63;2.40;;;;;;;;;;5091472;28;20565;-64
2023/08/14 02:48:46;;;;;;;2.67;2.47;;;;;;;;;;5091170;28;20685;-63
2023/08/14 02:51:14;;;;;;;2.53;2.17;;;;;;;;;;5090968;28;20735;-63
2023/08/14 02:53:43;;;;;;;4.15;2.47;;;;;;;;;;5089845;28;20195;-63
2023/08/14 02:56:10;;;;;;;1.77;1.70;;;;;;;;;;5090893;28;20199;-63
2023/08/14 02:58:37;;;;;;;2.55;2.35;;;;;;;;;;5091293;28;20210;-63
2023/08/14 03:01:04;;;;;;;2.00;1.90;;;;;;;;;;5090861;28;20221;-62
2023/08/14 03:03:31;;;;;;;2.30;2.10;;;;;;;;;;5090937;28;20253;-63
2023/08/14 03:05:59;;;;;;;3.95;2.08;;;;;;;;;;5090525;28;20198;-62
2023/08/14 03:08:26;;;;;;;2.40;2.20;;;;;;;;;;5090905;28;20660;-62
2023/08/14 03:10:54;;;;;;;4.43;2.67;;;;;;;;;;5090880;28;20301;-63
2023/08/14 03:13:21;;;;;;;4.88;2.05;;;;;;;;;;5090969;28;20202;-62
2023/08/14 03:15:48;;;;;;;2.40;2.08;;;;;;;;;;5090572;28;20257;-62
2023/08/14 03:18:15;;;;;;;2.97;2.20;;;;;;;;;;5090282;28;20214;-63
2023/08/14 03:20:42;;;;;;;3.70;2.17;;;;;;;;;;5090606;28;20742;-63
2023/08/14 03:23:10;;;;;;;4.75;2.03;;;;;;;;;;5090551;28;20233;-63
2023/08/14 03:25:37;;;;;;;6.72;2.33;;;;;;;;;;5090613;28;20308;-62
2023/08/14 03:28:06;;;;;;;2.40;2.30;;;;;;;;;;5090295;28;20202;-62
2023/08/14 03:30:33;;;;;;;2.47;2.22;;;;;;;;;;5090752;28;20218;-62
2023/08/14 03:33:00;;;;;;;3.15;2.10;;;;;;;;;;5090283;28;20226;-63
2023/08/14 03:35:27;;;;;;;4.07;2.20;;;;;;;;;;5090003;28;20199;-63
2023/08/14 03:37:54;;;;;;;2.20;2.10;;;;;;;;;;5089381;28;20817;-62
2023/08/14 03:40:21;;;;;;;2.33;2.13;;;;;;;;;;5088810;28;20202;-62
2023/08/14 03:42:48;;;;;;;1.88;1.88;;;;;;;;;;5090268;28;20222;-62
2023/08/14 03:45:16;;;;;;;5.35;2.50;;;;;;;;;;5089894;28;20279;-63
2023/08/14 03:47:43;;;;;;;3.60;2.78;;;;;;;;;;5090169;28;20206;-62
2023/08/14 03:50:10;;;;;;;4.00;2.97;;;;;;;;;;5089812;28;20206;-63
2023/08/14 03:52:37;;;;;;;2.85;2.55;;;;;;;;;;5090406;28;20202;-62
2023/08/14 03:55:04;;;;;;;2.75;2.55;;;;;;;;;;5090213;28;20217;-62
2023/08/14 03:57:32;;;;;;;2.67;2.53;;;;;;;;;;5089854;28;20697;-63
2023/08/14 03:59:59;;;;;;;2.53;2.30;;;;;;;;;;5089833;28;20684;-63
2023/08/14 04:02:27;;;;;;;2.83;2.63;;;;;;;;;;5089359;28;20198;-62
2023/08/14 04:04:54;;;;;;;7.50;2.53;;;;;;;;;;5083977;28;20230;-62
2023/08/14 04:07:21;;;;;;;4.00;2.80;;;;;;;;;;5090102;28;20668;-61
2023/08/14 04:09:48;;;;;;;3.88;2.60;;;;;;;;;;5090177;28;20210;-62
2023/08/14 04:12:15;;;;;;;4.68;2.40;;;;;;;;;;5085284;28;20231;-62
2023/08/14 04:14:42;;;;;;;4.10;2.47;;;;;;;;;;5088203;28;20199;-62
2023/08/14 04:17:09;;;;;;;5.55;2.50;;;;;;;;;;5088603;28;20225;-61
2023/08/14 04:19:38;;;;;;;2.60;2.40;;;;;;;;;;5069626;28;20215;-62
2023/08/14 04:22:05;;;;;;;2.58;2.38;;;;;;;;;;5089471;28;20206;-62
2023/08/14 04:24:32;;;;;;;2.35;2.25;;;;;;;;;;5089490;28;20249;-62
2023/08/14 04:26:59;;;;;;;3.08;2.90;;;;;;;;;;5089596;28;20210;-62
2023/08/14 04:29:26;;;;;;;6.15;2.50;;;;;;;;;;5089516;28;20233;-61
2023/08/14 04:31:53;;;;;;;2.40;2.20;;;;;;;;;;5089279;28;20261;-62
2023/08/14 04:34:20;;;;;;;3.17;2.50;;;;;;;;;;5089212;28;20207;-62
2023/08/14 04:36:49;;;;;;;2.95;2.53;;;;;;;;;;5089547;28;20210;-62
2023/08/14 04:39:16;;;;;;;2.58;2.40;;;;;;;;;;5089208;28;20586;-62
2023/08/14 04:41:43;;;;;;;6.78;2.80;;;;;;;;;;5069564;28;20202;-61
2023/08/14 04:44:10;;;;;;;2.97;2.67;;;;;;;;;;5066762;28;20231;-61
2023/08/14 04:46:38;;;;;;;2.95;2.35;;;;;;;;;;5069152;28;20211;-61
2023/08/14 04:49:05;;;;;;;2.70;2.50;;;;;;;;;;5068490;28;20203;-61
2023/08/14 04:51:32;;;;;;;5.18;2.90;;;;;;;;;;5082454;28;20619;-62
2023/08/14 04:54:01;;;;;;;2.55;2.45;;;;;;;;;;5089161;28;20213;-62
2023/08/14 04:56:30;;;;;;;2.63;2.40;;;;;;;;;;5083248;28;20199;-62
2023/08/14 04:58:58;;;;;;;2.95;2.60;;;;;;;;;;5087054;28;20703;-62
2023/08/14 05:01:25;;;;;;;2.70;2.50;;;;;;;;;;5087674;28;20206;-62
2023/08/14 05:03:52;;;;;;;3.53;2.40;;;;;;;;;;5087489;28;20222;-61
2023/08/14 05:06:19;;;;;;;5.03;2.92;;;;;;;;;;5088969;28;20584;-64
2023/08/14 05:08:46;;;;;;;6.07;2.28;;;;;;;;;;5088989;28;20198;-62
2023/08/14 05:11:14;;;;;;;5.30;2.83;;;;;;;;;;5089104;28;20210;-62
2023/08/14 05:13:44;;;;;;;2.75;2.55;;;;;;;;;;5089486;28;20292;-63
2023/08/14 05:16:11;;;;;;;6.05;2.90;;;;;;;;;;5088611;28;20614;-63
2023/08/14 05:18:38;;;;;;;6.68;2.50;;;;;;;;;;5083391;28;20202;-63
2023/08/14 05:21:05;;;;;;;3.33;2.50;;;;;;;;;;5087101;28;20259;-63
2023/08/14 05:23:32;;;;;;;2.78;2.58;;;;;;;;;;5088849;28;20226;-63
2023/08/14 05:25:59;;;;;;;3.13;2.70;;;;;;;;;;5089168;28;20217;-63
2023/08/14 05:28:28;;;;;;;4.03;2.50;;;;;;;;;;5089428;28;20206;-63
2023/08/14 05:30:55;;;;;;;3.45;3.22;;;;;;;;;;5088839;28;20202;-63
2023/08/14 05:33:22;;;;;;;2.78;2.20;;;;;;;;;;5086821;28;20230;-62
2023/08/14 05:35:49;;;;;;;2.53;2.40;;;;;;;;;;5088880;28;20206;-63
2023/08/14 05:38:16;;;;;;;3.25;2.47;;;;;;;;;;5088945;28;20206;-62
2023/08/14 05:40:43;;;;;;;2.72;2.60;;;;;;;;;;5088890;28;20214;-62
2023/08/14 05:43:11;;;;;;;6.07;2.75;;;;;;;;;;5088547;28;20240;-62
2023/08/14 05:45:40;;;;;;;2.53;2.42;;;;;;;;;;5088769;28;20209;-62
2023/08/14 05:48:08;;;;;;;3.60;3.35;;;;;;;;;;5087340;28;20297;-62
2023/08/14 05:50:35;;;;;;;2.80;2.58;;;;;;;;;;5088999;28;20214;-62
2023/08/14 05:53:03;;;;;;;2.97;2.78;;;;;;;;;;5088606;28;20572;-63
2023/08/14 05:55:31;;;;;;;2.63;2.42;;;;;;;;;;5087340;28;20237;-63
2023/08/14 05:57:58;;;;;;;4.53;2.60;;;;;;;;;;5088744;28;20209;-63
2023/08/14 06:00:26;;;;;;;3.15;2.45;;;;;;;;;;5089042;28;20210;-62
2023/08/14 06:02:54;;;;;;;3.90;2.47;;;;;;;;;;5089080;28;20297;-62
2023/08/14 06:05:21;;;;;;;4.45;2.50;;;;;;;;;;5092510;28;20226;-62
2023/08/14 06:07:49;;;;;;;3.63;2.38;;;;;;;;;;5091995;28;20631;-62
2023/08/14 06:10:16;;;;;;;3.05;2.85;;;;;;;;;;5092444;28;20206;-62
2023/08/14 06:12:44;;;;;;;3.17;2.60;;;;;;;;;;5091865;28;20218;-62
2023/08/14 06:15:11;;;;;;;3.70;2.20;;;;;;;;;;5091985;28;20208;-62
2023/08/14 06:17:39;;;;;;;5.25;2.63;;;;;;;;;;5092223;28;20326;-62
2023/08/14 06:20:10;;;;;;;5.38;2.60;;;;;;;;;;5091970;28;20210;-62
2023/08/14 06:22:40;;;;;;;2.65;2.45;;;;;;;;;;5092098;28;20203;-62
2023/08/14 06:25:07;;;;;;;2.58;2.47;;;;;;;;;;5092006;28;20230;-62
2023/08/14 06:27:34;;;;;;;4.30;2.63;;;;;;;;;;5091894;28;20612;-62
2023/08/14 06:30:01;;;;;;;4.55;2.53;;;;;;;;;;5091813;28;20229;-62
2023/08/14 06:32:28;;;;;;;4.10;2.45;;;;;;;;;;5091297;28;20256;-62
2023/08/14 06:34:56;;;;;;;3.60;2.45;;;;;;;;;;5090949;28;20703;-60
2023/08/14 06:37:24;;;;;;;6.43;3.35;;;;;;;;;;5091362;28;20206;-66
2023/08/14 06:39:51;;;;;;;14.60;3.42;;;;;;;;;;5091229;28;20206;-62
2023/08/14 06:42:18;;;;;;;7.85;2.97;;;;;;;;;;5091073;28;20203;-62
2023/08/14 06:44:45;;;;;;;8.90;3.08;;;;;;;;;;5090601;28;20226;-62
2023/08/14 06:47:12;;;;;;;4.60;2.35;;;;;;;;;;5091585;28;20301;-65
2023/08/14 06:49:39;;;;;;;2.30;2.20;;;;;;;;;;5090749;28;20206;-65
2023/08/14 06:52:07;;;;;;;4.07;2.42;;;;;;;;;;5091264;28;20214;-66
2023/08/14 06:54:36;;;;;;;2.50;2.30;;;;;;;;;;5090632;28;20205;-66
2023/08/14 06:57:03;;;;;;;4.13;2.47;;;;;;;;;;5091003;28;20394;-66
2023/08/14 06:59:31;;;;;;;2.30;2.20;;;;;;;;;;5091136;28;20324;-67
2023/08/14 07:01:58;;;;;;;5.00;2.35;;;;;;;;;;5091189;28;20214;-67
2023/08/14 07:04:25;;;;;;;5.38;2.20;;;;;;;;;;5090717;28;20233;-67
2023/08/14 07:06:52;;;;;;;2.45;2.25;;;;;;;;;;5090952;28;20214;-67
2023/08/14 07:09:19;;;;;;;2.40;2.20;;;;;;;;;;5091305;28;20217;-67
2023/08/14 07:11:48;;;;;;;2.30;2.20;;;;;;;;;;5088024;28;20210;-67
2023/08/14 07:14:15;;;;;;;4.00;1.98;;;;;;;;;;5089675;28;20199;-67
2023/08/14 07:16:42;;;;;;;5.35;2.55;;;;;;;;;;5089742;28;20210;-67
2023/08/14 07:19:09;;;;;;;2.30;2.17;;;;;;;;;;5090284;28;20214;-67
2023/08/14 07:21:36;;;;;;;3.80;2.00;;;;;;;;;;5090063;28;20301;-67
2023/08/14 07:24:03;;;;;;;4.50;2.45;;;;;;;;;;5090230;28;20234;-67
2023/08/14 07:26:30;;;;;;;2.40;2.30;;;;;;;;;;5090031;28;20213;-67
2023/08/14 07:28:59;;;;;;;6.88;2.22;;;;;;;;;;5089889;28;20213;-67
2023/08/14 07:31:26;;;;;;;25.10;3.85;;;;;;;;;;5089597;28;20726;-67
2023/08/14 07:33:53;;;;;;;2.53;2.38;;;;;;;;;;5089562;28;20253;-67
2023/08/14 07:36:20;;;;;;;1.70;1.60;;;;;;;;;;5090033;28;20214;-68
2023/08/14 07:38:47;;;;;;;4.78;2.13;;;;;;;;;;5089705;28;20210;-66
2023/08/14 07:41:14;;;;;;;1.85;1.77;;;;;;;;;;5089918;28;20210;-67
2023/08/14 07:43:41;;;;;;;4.97;2.45;;;;;;;;;;5089248;28;20234;-67
2023/08/14 07:46:11;;;;;;;5.32;1.95;;;;;;;;;;5089971;28;20358;-68
2023/08/14 07:48:38;;;;;;;3.50;2.38;;;;;;;;;;5089307;28;20228;-67
2023/08/14 07:51:05;;;;;;;2.53;2.15;;;;;;;;;;5089759;28;20214;-67
2023/08/14 07:53:33;;;;;;;2.47;2.03;;;;;;;;;;5089149;28;20210;-68
2023/08/14 07:56:00;;;;;;;2.80;2.30;;;;;;;;;;5089470;28;20426;-68
2023/08/14 07:58:27;;;;;;;1.80;1.70;;;;;;;;;;5086291;28;20554;-68
2023/08/14 08:00:55;;;;;;;2.28;1.80;;;;;;;;;;5086684;28;20206;-68
2023/08/14 08:03:24;;;;;;;3.30;1.80;;;;;;;;;;5087519;28;20241;-68
2023/08/14 08:05:52;;;;;;;2.22;2.00;;;;;;;;;;5088371;28;20306;-67
2023/08/14 08:08:19;;;;;;;1.88;1.83;;;;;;;;;;5088723;28;20209;-68
2023/08/14 08:10:46;;;;;;;2.58;1.67;;;;;;;;;;5088829;28;20206;-69
2023/08/14 08:13:13;;;;;;;3.38;2.00;;;;;;;;;;5088678;28;20554;-68
2023/08/14 08:15:40;;;;;;;2.20;2.10;;;;;;;;;;5085070;28;20209;-68
2023/08/14 08:18:07;;;;;;;1.85;1.75;;;;;;;;;;5089163;28;20301;-68
2023/08/14 08:20:35;;;;;;;4.70;1.80;;;;;;;;;;5088652;28;20206;-69
2023/08/14 08:23:03;;;;;;;3.85;2.25;;;;;;;;;;5089198;28;20233;-69
2023/08/14 08:25:31;;;;;;;2.35;1.80;;;;;;;;;;5088576;28;20226;-69
2023/08/14 08:27:58;;;;;;;2.65;2.10;;;;;;;;;;5089255;28;20831;-68
2023/08/14 08:30:25;;;;;;;3.13;2.00;;;;;;;;;;5088398;28;20210;-69
2023/08/14 08:32:52;;;;;;;1.73;1.70;;;;;;;;;;5088573;28;20728;-69
2023/08/14 08:35:19;;;;;;;2.15;2.00;;;;;;;;;;5088477;28;20225;-69
2023/08/14 08:37:47;;;;;;;2.13;1.95;;;;;;;;;;5088703;28;20206;-68
2023/08/14 08:40:14;;;;;;;2.58;2.17;;;;;;;;;;5088929;28;20720;-69
2023/08/14 08:42:41;;;;;;;5.10;2.25;;;;;;;;;;5088253;28;20207;-68
2023/08/14 08:45:09;;;;;;;4.78;2.13;;;;;;;;;;5088973;28;20395;-63
2023/08/14 08:47:39;;;;;;;8.18;2.15;;;;;;;;;;5088765;28;20304;-62
2023/08/14 08:50:06;;;;;;;3.35;1.90;;;;;;;;;;5088943;28;20210;-65
2023/08/14 08:52:34;;;;;;;2.03;1.92;;;;;;;;;;5088463;28;20688;-65
2023/08/14 08:55:03;;;;;;;3.22;2.03;;;;;;;;;;5088470;28;20285;-64
2023/08/14 08:57:30;;;;;;;3.83;2.58;;;;;;;;;;5088153;28;20310;-72
2023/08/14 08:59:59;;;;;;;2.15;2.08;;;;;;;;;;5069726;28;20652;-72
2023/08/14 09:02:26;;;;;;;3.33;2.10;;;;;;;;;;5085036;28;20225;-72
2023/08/14 09:04:53;;;;;;;2.03;1.92;;;;;;;;;;5086574;28;20236;-72
2023/08/14 09:07:21;;;;;;;2.25;1.80;;;;;;;;;;5073216;28;20221;-72
2023/08/14 09:09:48;;;;;;;2.00;1.90;;;;;;;;;;5084488;28;20217;-72
2023/08/14 09:12:16;;;;;;;1.98;1.98;;;;;;;;;;5070071;28;20219;-73
2023/08/14 09:14:44;;;;;;;3.28;2.20;;;;;;;;;;5066945;28;20301;-73
2023/08/14 09:17:11;;;;;;;3.70;2.30;;;;;;;;;;5065551;28;20215;-73
2023/08/14 09:19:39;;;;;;;2.38;2.10;;;;;;;;;;5066155;28;20630;-73
2023/08/14 09:22:07;;;;;;;2.53;2.33;;;;;;;;;;5067674;28;20250;-73
2023/08/14 09:24:34;;;;;;;5.03;2.17;;;;;;;;;;5067267;28;20262;-73
2023/08/14 09:27:01;;;;;;;3.47;2.47;;;;;;;;;;5067499;28;20253;-72
2023/08/14 09:29:33;;;;;;;2.38;2.20;;;;;;;;;;5067580;28;20207;-72
2023/08/14 09:32:01;;;;;;;2.47;2.30;;;;;;;;;;5087615;28;20694;-72
2023/08/14 09:34:30;;;;;;;2.20;2.00;;;;;;;;;;5087384;28;20202;-72
2023/08/14 09:36:57;;;;;;;2.47;2.08;;;;;;;;;;5087827;28;20293;-72
2023/08/14 09:39:24;;;;;;;2.20;2.05;;;;;;;;;;5091048;28;20206;-72
2023/08/14 09:41:51;;;;;;;2.80;2.05;;;;;;;;;;5091868;28;20202;-73
2023/08/14 09:44:20;;;;;;;11.60;2.42;;;;;;;;;;5091089;28;20688;-72
2023/08/14 09:46:49;;;;;;;2.15;2.03;;;;;;;;;;5091811;28;20255;-73
2023/08/14 09:49:17;;;;;;;2.10;2.00;;;;;;;;;;5091433;28;20607;-73
2023/08/14 09:51:53;;;;;;;1.77;1.75;;;;;;;;;;5092064;28;20202;-72
2023/08/14 09:54:20;;;;;;;2.08;1.98;;;;;;;;;;5091355;28;20221;-73
2023/08/14 09:56:51;;;;;;;2.00;1.90;;;;;;;;;;5091192;28;20207;-72
2023/08/14 09:59:18;;;;;;;2.20;2.10;;;;;;;;;;5091646;28;20417;-73
2023/08/14 10:01:49;;;;;;;3.13;1.77;;;;;;;;;;5091077;28;20214;-72
2023/08/14 10:04:18;;;;;;;2.50;2.15;;;;;;;;;;5090762;28;20728;-72
2023/08/14 10:06:45;;;;;;;2.35;2.13;;;;;;;;;;5091113;28;20283;-73
2023/08/14 10:09:12;;;;;;;5.30;1.95;;;;;;;;;;5091224;28;20229;-73
2023/08/14 10:11:39;;;;;;;3.30;2.47;;;;;;;;;;5091077;28;20218;-73
2023/08/14 10:14:08;;;;;;;2.15;2.05;;;;;;;;;;5091262;28;20210;-72
2023/08/14 10:16:38;;;;;;;1.77;1.75;;;;;;;;;;5091406;28;20586;-72
2023/08/14 10:19:05;;;;;;;2.40;2.20;;;;;;;;;;5091732;28;20206;-72
2023/08/14 10:21:35;;;;;;;2.35;1.80;;;;;;;;;;5091577;28;20214;-72
2023/08/14 10:24:03;;;;;;;2.05;1.77;;;;;;;;;;5091735;28;20206;-73
2023/08/14 10:26:31;;;;;;;3.65;1.65;;;;;;;;;;5091163;28;20254;-71
2023/08/14 10:28:59;;;;;;;3.80;2.22;;;;;;;;;;5091496;28;20210;-70
2023/08/14 10:31:27;;;;;;;4.45;2.17;;;;;;;;;;5091223;28;20218;-71
2023/08/14 10:33:55;;;;;;;3.80;2.13;;;;;;;;;;5088989;28;20242;-71
2023/08/14 10:36:22;;;;;;;2.45;2.28;;;;;;;;;;5090399;28;20207;-71
2023/08/14 10:38:51;;;;;;;2.30;2.17;;;;;;;;;;5090541;28;20210;-71
2023/08/14 10:41:19;;;;;;;6.53;1.88;;;;;;;;;;5090551;28;20203;-70
2023/08/14 10:43:50;;;;;;;2.00;1.90;;;;;;;;;;5090370;28;20222;-70
2023/08/14 10:46:17;;;;;;;3.42;2.30;;;;;;;;;;5089888;28;20234;-71
2023/08/14 10:48:45;;;;;;;4.57;2.30;;;;;;;;;;5090387;28;20538;-71
2023/08/14 10:51:15;;;;;;;5.75;2.13;;;;;;;;;;5088920;28;20206;-71
2023/08/14 10:53:42;;;;;;;3.38;2.17;;;;;;;;;;5090542;28;20206;-71
2023/08/14 10:56:13;;;;;;;2.50;2.30;;;;;;;;;;5090018;28;20210;-71
2023/08/14 10:58:47;;;;;;;3.70;2.30;;;;;;;;;;5090209;28;20823;-70
2023/08/14 11:01:14;;;;;;;2.20;2.00;;;;;;;;;;5089979;28;20258;-74
2023/08/14 11:04:00;;;;;;;2.10;2.00;;;;;;;;;;5090411;28;20210;-74
2023/08/14 11:06:28;;;;;;;2.65;2.40;;;;;;;;;;5090628;28;20222;-72
2023/08/14 11:08:59;;;;;;;3.45;1.90;;;;;;;;;;5090603;28;20234;-72
2023/08/14 11:11:28;;;;;;;1.95;1.85;;;;;;;;;;5090791;28;20237;-73
2023/08/14 11:13:55;;;;;;;3.50;2.50;;;;;;;;;;5088263;28;20212;-73
2023/08/14 11:16:22;;;;;;;2.70;2.60;;;;;;;;;;5089825;28;20699;-73
2023/08/14 11:18:50;;;;;;;2.25;2.15;;;;;;;;;;5089949;28;20210;-73
2023/08/14 11:21:17;;;;;;;2.00;1.90;;;;;;;;;;5089945;28;20714;-73
2023/08/14 11:23:44;;;;;;;2.55;2.20;;;;;;;;;;5089694;28;20570;-73
2023/08/14 11:26:11;;;;;;;2.08;1.98;;;;;;;;;;5090035;28;20226;-73
2023/08/14 11:28:39;;;;;;;3.13;2.00;;;;;;;;;;5089378;28;20218;-74
2023/08/14 11:31:06;;;;;;;2.13;2.10;;;;;;;;;;5089778;28;20217;-73
2023/08/14 11:33:33;;;;;;;2.30;2.10;;;;;;;;;;5089044;28;20249;-73
2023/08/14 11:36:00;;;;;;;2.00;1.90;;;;;;;;;;5087733;28;20199;-73
2023/08/14 11:38:27;;;;;;;2.00;2.00;;;;;;;;;;5089485;28;20202;-73
2023/08/14 11:40:54;;;;;;;2.78;2.50;;;;;;;;;;5089587;28;20579;-73
2023/08/14 11:43:22;;;;;;;2.33;2.13;;;;;;;;;;5089852;28;20234;-73
2023/08/14 11:45:50;;;;;;;2.20;2.10;;;;;;;;;;5089373;28;20229;-73
2023/08/14 11:48:18;;;;;;;2.67;2.08;;;;;;;;;;5089561;28;20687;-74
2023/08/14 11:50:47;;;;;;;2.40;2.30;;;;;;;;;;5089436;28;20206;-73
2023/08/14 11:53:15;;;;;;;2.78;2.13;;;;;;;;;;5089821;28;20309;-74
2023/08/14 11:55:42;;;;;;;2.42;2.22;;;;;;;;;;5089490;28;20213;-73
2023/08/14 11:58:09;;;;;;;1.83;1.80;;;;;;;;;;5089383;28;20206;-73
2023/08/14 12:00:36;;;;;;;1.90;1.75;;;;;;;;;;5088812;28;20218;-73
2023/08/14 12:03:04;;;;;;;1.83;1.77;;;;;;;;;;5089161;28;20218;-74
2023/08/14 12:05:31;;;;;;;2.17;2.08;;;;;;;;;;5088945;28;20249;-63
2023/08/14 12:08:00;;;;;;;5.07;4.03;;;;;;;;;;5089474;28;20644;-65
2023/08/14 12:10:31;;;;;;;21.60;9.88;;;;;;;;;;5088698;28;20667;-63
2023/08/14 12:12:58;;;;;;;127.60;50.38;;;;;;;;;;5088925;28;20233;-62
2023/08/14 12:15:26;;;;;;;11.63;7.32;;;;;;;;;;5088956;28;20206;-62
2023/08/14 12:17:53;;;;;;;5.05;4.03;;;;;;;;;;5084153;28;20214;-63
2023/08/14 12:20:23;;;;;;;10.15;6.70;;;;;;;;;;5085846;28;20210;-62
2023/08/14 12:22:50;;;;;;;5.35;3.70;;;;;;;;;;5087784;28;20305;-62
2023/08/14 12:25:19;;;;;;;7.32;5.88;;;;;;;;;;5088087;28;20593;-61
2023/08/14 12:27:46;;;;;;;32.60;15.73;;;;;;;;;;5088350;28;20512;-61
2023/08/14 12:30:14;;;;;;;7.10;6.03;;;;;;;;;;5087594;28;20226;-61
2023/08/14 12:32:47;;;;;;;5.70;3.80;;;;;;;;;;5088083;28;20256;-61
2023/08/14 12:35:14;;;;;;;8.80;5.03;;;;;;;;;;5086294;28;20205;-62
2023/08/14 12:37:43;;;;;;;4.28;3.70;;;;;;;;;;5082356;28;20219;-62
2023/08/14 12:40:10;;;;;;;3.80;2.25;;;;;;;;;;5067830;28;20214;-61
2023/08/14 12:42:38;;;;;;;3.83;2.08;;;;;;;;;;5068448;28;20203;-61
2023/08/14 12:45:05;;;;;;;6.35;4.50;;;;;;;;;;5067874;28;20237;-61
2023/08/14 12:47:33;;;;;;;2.67;2.45;;;;;;;;;;5068043;28;20296;-61
2023/08/14 12:50:00;;;;;;;2.47;2.05;;;;;;;;;;5067945;28;20207;-61
2023/08/14 12:52:27;;;;;;;2.33;2.13;;;;;;;;;;5068054;28;20581;-61
2023/08/14 12:54:55;;;;;;;2.00;1.90;;;;;;;;;;5068197;28;20206;-62
2023/08/14 12:57:22;;;;;;;1.52;1.50;;;;;;;;;;5067815;28;20260;-64
2023/08/14 12:59:49;;;;;;;6.18;1.50;;;;;;;;;;5080581;28;20226;-63
2023/08/14 13:02:16;;;;;;;1.80;1.70;;;;;;;;;;5088109;28;20206;-63
2023/08/14 13:04:43;;;;;;;5.97;2.30;;;;;;;;;;5088122;28;20240;-63
2023/08/14 13:07:10;;;;;;;1.40;1.40;;;;;;;;;;5087796;28;20233;-63
2023/08/14 13:09:37;;;;;;;2.28;1.50;;;;;;;;;;5088328;28;20214;-63
2023/08/14 13:12:06;;;;;;;2.05;1.95;;;;;;;;;;5087646;28;20214;-64
2023/08/14 13:14:33;;;;;;;2.20;1.80;;;;;;;;;;5087561;28;20206;-63
2023/08/14 13:17:00;;;;;;;1.63;1.52;;;;;;;;;;5087635;28;20218;-61
2023/08/14 13:19:28;;;;;;;1.45;1.45;;;;;;;;;;5088004;28;20202;-68
2023/08/14 13:21:55;;;;;;;1.67;1.58;;;;;;;;;;5078657;28;20215;-68
2023/08/14 13:24:22;;;;;;;2.00;1.70;;;;;;;;;;5067811;28;20217;-68
2023/08/14 13:26:49;;;;;;;4.57;1.70;;;;;;;;;;5068309;28;20230;-66
2023/08/14 13:29:17;;;;;;;2.15;1.58;;;;;;;;;;5064324;28;20223;-68
2023/08/14 13:31:46;;;;;;;1.88;1.70;;;;;;;;;;5083454;28;20206;-68
2023/08/14 13:34:13;;;;;;;1.70;1.60;;;;;;;;;;5087972;28;20210;-68
2023/08/14 13:36:40;;;;;;;1.50;1.50;;;;;;;;;;5088027;28;20206;-69
2023/08/14 13:39:09;;;;;;;2.08;1.80;;;;;;;;;;5078097;28;20215;-68
2023/08/14 13:41:36;;;;;;;1.58;1.40;;;;;;;;;;5079814;28;20218;-68
2023/08/14 13:44:03;;;;;;;3.00;1.52;;;;;;;;;;5075526;28;20258;-68
2023/08/14 13:46:31;;;;;;;1.85;1.75;;;;;;;;;;5067388;28;20287;-68
2023/08/14 13:48:58;;;;;;;3.47;1.83;;;;;;;;;;5067721;28;20222;-68
2023/08/14 13:51:25;;;;;;;3.70;1.70;;;;;;;;;;5067619;28;20203;-68
2023/08/14 13:53:52;;;;;;;1.70;1.70;;;;;;;;;;5067469;28;20214;-68
2023/08/14 13:56:20;;;;;;;2.13;1.55;;;;;;;;;;5067634;28;20249;-68
2023/08/14 13:58:47;;;;;;;1.70;1.60;;;;;;;;;;5067560;28;20211;-68
2023/08/14 14:01:14;;;;;;;3.13;1.77;;;;;;;;;;5081260;28;20206;-68
2023/08/14 14:03:42;;;;;;;1.92;1.40;;;;;;;;;;5087802;28;20225;-68
2023/08/14 14:06:10;;;;;;;1.73;1.63;;;;;;;;;;5087549;28;20233;-68
2023/08/14 14:08:37;;;;;;;3.35;1.42;;;;;;;;;;5087856;28;20350;-68
2023/08/14 14:11:04;;;;;;;2.08;1.98;;;;;;;;;;5087888;28;20206;-68
2023/08/14 14:13:31;;;;;;;2.75;1.90;;;;;;;;;;5087763;28;20234;-69
2023/08/14 14:15:59;;;;;;;1.60;1.50;;;;;;;;;;5087654;28;20215;-70
2023/08/14 14:18:26;;;;;;;1.85;1.63;;;;;;;;;;5087907;28;20202;-69
2023/08/14 14:20:54;;;;;;;1.77;1.67;;;;;;;;;;5087291;28;20221;-69
2023/08/14 14:23:21;;;;;;;2.88;1.58;;;;;;;;;;5086353;28;20213;-71
2023/08/14 14:25:48;;;;;;;1.80;1.70;;;;;;;;;;5088262;28;20210;-69
2023/08/14 14:28:15;;;;;;;1.98;1.58;;;;;;;;;;5088578;28;20775;-69
2023/08/14 14:30:42;;;;;;;2.92;1.40;;;;;;;;;;5089464;28;20210;-68
2023/08/14 14:33:09;;;;;;;2.13;1.88;;;;;;;;;;5090335;28;20234;-68
2023/08/14 14:35:36;;;;;;;1.92;1.83;;;;;;;;;;5090592;28;20620;-71
2023/08/14 14:38:05;;;;;;;1.70;1.70;;;;;;;;;;5090128;28;20214;-68
2023/08/14 14:40:32;;;;;;;1.80;1.70;;;;;;;;;;5089795;28;20218;-68
2023/08/14 14:42:59;;;;;;;1.88;1.75;;;;;;;;;;5090254;28;20263;-69
2023/08/14 14:45:26;;;;;;;2.05;1.60;;;;;;;;;;5090264;28;20236;-69